PWSweather.com
Personal Weather Stations
Station Observations
KA1WBH
West Island, Fairhaven, MA 02719

West IslandFairhaven, MA 02719

Lat: 41.5979996, Lon: -70.8330002

Elevation: 78

Station Type: Davis Vantage Pro II

Latest ConditionsUpdated 9:05:03 AM EST Thursday, Jan 29, 2015
Currently Today's Max Today's Min Today's Average
Temperature 19.1°F-7.2°C 19.1°F-7.2°C 14.0°F-10.0°C 15.9°F-8.9°C
Dew Point 8.2°F-13.2°C 9.1°F-12.7°C 3.9°F-15.6°C 6.0°F-14.4°C
Winds 3.0 mph NW4.8 kmh NW 10.0 mph NNW16.1 kmh NNW - 3.4 mph 5.5 kmh
Wind Gusts 6.0 mph9.7 kmh 14.0 mph22.5 kmh - -
Humidity 62% 68% 61% 64%
Pressure 30.33 in1027.1 mb 30.33 in1027.1 mb 30.24 in1024.0 mb -
Hour Temp Dew Point Humidity Winds Wind Gusts Pressure Precip Precip Rate Daily Precip Total
09:05 AM 19.1°F-7.2°C 8.2°F-13.2°C 62% 3.0 mph NW4.8 kmh NW 6.0 mph9.7 kmh 30.33 in1027.1 mb 0.00 in0.0 mm 0.00 in/hr0.0 mm/hr 0.00 in0.0 mm
08:50 AM 18.2°F-7.7°C 7.4°F-13.7°C 62% 3.0 mph NW4.8 kmh NW 6.0 mph9.7 kmh 30.33 in1027.1 mb 0.00 in0.0 mm 0.00 in/hr0.0 mm/hr 0.00 in0.0 mm
08:35 AM 17.1°F-8.3°C 7.4°F-13.7°C 65% 4.0 mph NW6.4 kmh NW 6.0 mph9.7 kmh 30.33 in1027.1 mb 0.00 in0.0 mm 0.00 in/hr0.0 mm/hr 0.00 in0.0 mm
08:20 AM 15.9°F-8.9°C 6.6°F-14.1°C 66% 4.0 mph NW6.4 kmh NW 6.0 mph9.7 kmh 30.33 in1027.1 mb 0.00 in0.0 mm 0.00 in/hr0.0 mm/hr 0.00 in0.0 mm
08:05 AM 14.4°F-9.8°C 4.8°F-15.1°C 65% 5.0 mph NW8.0 kmh NW 6.0 mph9.7 kmh 30.33 in1027.1 mb 0.00 in0.0 mm 0.00 in/hr0.0 mm/hr 0.00 in0.0 mm
07:50 AM 14.1°F-9.9°C 5.2°F-14.9°C 67% Calm Calm 5.0 mph8.0 kmh 30.33 in1027.1 mb 0.00 in0.0 mm 0.00 in/hr0.0 mm/hr 0.00 in0.0 mm
07:35 AM 14.0°F-10.0°C 5.4°F-14.8°C 68% 2.0 mph NW3.2 kmh NW 6.0 mph9.7 kmh 30.32 in1026.8 mb 0.00 in0.0 mm 0.00 in/hr0.0 mm/hr 0.00 in0.0 mm
07:20 AM 14.3°F-9.8°C 4.4°F-15.3°C 64% 1.0 mph NW1.6 kmh NW 8.0 mph12.9 kmh 30.32 in1026.8 mb 0.00 in0.0 mm 0.00 in/hr0.0 mm/hr 0.00 in0.0 mm
07:05 AM 14.5°F-9.7°C 3.9°F-15.6°C 62% 5.0 mph NW8.0 kmh NW 5.0 mph8.0 kmh 30.31 in1026.4 mb 0.00 in0.0 mm 0.00 in/hr0.0 mm/hr 0.00 in0.0 mm
06:50 AM 14.5°F-9.7°C 3.9°F-15.6°C 62% 4.0 mph NW6.4 kmh NW 9.0 mph14.5 kmh 30.31 in1026.4 mb 0.00 in0.0 mm 0.00 in/hr0.0 mm/hr 0.00 in0.0 mm
06:35 AM 14.0°F-10.0°C 4.8°F-15.1°C 66% 1.0 mph NW1.6 kmh NW 6.0 mph9.7 kmh 30.31 in1026.4 mb 0.00 in0.0 mm 0.00 in/hr0.0 mm/hr 0.00 in0.0 mm
06:20 AM 14.4°F-9.8°C 4.8°F-15.1°C 65% 4.0 mph NW6.4 kmh NW 6.0 mph9.7 kmh 30.31 in1026.4 mb 0.00 in0.0 mm 0.00 in/hr0.0 mm/hr 0.00 in0.0 mm
06:05 AM 14.3°F-9.8°C 4.4°F-15.3°C 64% 5.0 mph NW8.0 kmh NW 6.0 mph9.7 kmh 30.30 in1026.1 mb 0.00 in0.0 mm 0.00 in/hr0.0 mm/hr 0.00 in0.0 mm
05:50 AM 14.4°F-9.8°C 4.8°F-15.1°C 65% Calm Calm 7.0 mph11.3 kmh 30.30 in1026.1 mb 0.00 in0.0 mm 0.00 in/hr0.0 mm/hr 0.00 in0.0 mm
05:35 AM 14.6°F-9.7°C 5.0°F-15.0°C 65% 1.0 mph N1.6 kmh N 6.0 mph9.7 kmh 30.30 in1026.1 mb 0.00 in0.0 mm 0.00 in/hr0.0 mm/hr 0.00 in0.0 mm
05:20 AM 15.0°F-9.4°C 5.4°F-14.8°C 65% 3.0 mph NNW4.8 kmh NNW 9.0 mph14.5 kmh 30.30 in1026.1 mb 0.00 in0.0 mm 0.00 in/hr0.0 mm/hr 0.00 in0.0 mm
05:05 AM 15.5°F-9.2°C 4.8°F-15.1°C 62% 1.0 mph NW1.6 kmh NW 10.0 mph16.1 kmh 30.30 in1026.1 mb 0.00 in0.0 mm 0.00 in/hr0.0 mm/hr 0.00 in0.0 mm
04:50 AM 15.4°F-9.2°C 4.7°F-15.2°C 62% 3.0 mph NNW4.8 kmh NNW 9.0 mph14.5 kmh 30.29 in1025.7 mb 0.00 in0.0 mm 0.00 in/hr0.0 mm/hr 0.00 in0.0 mm
04:35 AM 15.7°F-9.1°C 4.7°F-15.2°C 61% 1.0 mph NW1.6 kmh NW 7.0 mph11.3 kmh 30.29 in1025.7 mb 0.00 in0.0 mm 0.00 in/hr0.0 mm/hr 0.00 in0.0 mm
04:20 AM 15.8°F-9.0°C 5.1°F-14.9°C 62% 4.0 mph NW6.4 kmh NW 9.0 mph14.5 kmh 30.29 in1025.7 mb 0.00 in0.0 mm 0.00 in/hr0.0 mm/hr 0.00 in0.0 mm
04:05 AM 16.0°F-8.9°C 5.3°F-14.8°C 62% 1.0 mph NNW1.6 kmh NNW 9.0 mph14.5 kmh 30.29 in1025.7 mb 0.00 in0.0 mm 0.00 in/hr0.0 mm/hr 0.00 in0.0 mm
03:50 AM 15.9°F-8.9°C 4.8°F-15.1°C 61% 2.0 mph N3.2 kmh N 11.0 mph17.7 kmh 30.29 in1025.7 mb 0.00 in0.0 mm 0.00 in/hr0.0 mm/hr 0.00 in0.0 mm
03:35 AM 16.3°F-8.7°C 5.6°F-14.7°C 62% 2.0 mph N3.2 kmh N 11.0 mph17.7 kmh 30.29 in1025.7 mb 0.00 in0.0 mm 0.00 in/hr0.0 mm/hr 0.00 in0.0 mm
03:20 AM 16.4°F-8.7°C 6.0°F-14.4°C 63% 6.0 mph NNW9.7 kmh NNW 11.0 mph17.7 kmh 30.29 in1025.7 mb 0.00 in0.0 mm 0.00 in/hr0.0 mm/hr 0.00 in0.0 mm
03:05 AM 16.3°F-8.7°C 5.6°F-14.7°C 62% 6.0 mph NNW9.7 kmh NNW 12.0 mph19.3 kmh 30.29 in1025.7 mb 0.00 in0.0 mm 0.00 in/hr0.0 mm/hr 0.00 in0.0 mm
02:50 AM 16.3°F-8.7°C 5.6°F-14.7°C 62% 9.0 mph NNW14.5 kmh NNW 12.0 mph19.3 kmh 30.29 in1025.7 mb 0.00 in0.0 mm 0.00 in/hr0.0 mm/hr 0.00 in0.0 mm
02:35 AM 16.2°F-8.8°C 6.2°F-14.3°C 64% 6.0 mph NNW9.7 kmh NNW 12.0 mph19.3 kmh 30.29 in1025.7 mb 0.00 in0.0 mm 0.00 in/hr0.0 mm/hr 0.00 in0.0 mm
02:20 AM 16.2°F-8.8°C 6.2°F-14.3°C 64% 6.0 mph NW9.7 kmh NW 14.0 mph22.5 kmh 30.28 in1025.4 mb 0.00 in0.0 mm 0.00 in/hr0.0 mm/hr 0.00 in0.0 mm
02:05 AM 16.2°F-8.8°C 6.5°F-14.2°C 65% 5.0 mph N8.0 kmh N 12.0 mph19.3 kmh 30.28 in1025.4 mb 0.00 in0.0 mm 0.00 in/hr0.0 mm/hr 0.00 in0.0 mm
01:50 AM 16.4°F-8.7°C 6.7°F-14.1°C 65% 4.0 mph NW6.4 kmh NW 10.0 mph16.1 kmh 30.27 in1025.1 mb 0.00 in0.0 mm 0.00 in/hr0.0 mm/hr 0.00 in0.0 mm
01:35 AM 16.8°F-8.4°C 7.4°F-13.7°C 66% 3.0 mph NW4.8 kmh NW 9.0 mph14.5 kmh 30.27 in1025.1 mb 0.00 in0.0 mm 0.00 in/hr0.0 mm/hr 0.00 in0.0 mm
01:20 AM 16.8°F-8.4°C 7.4°F-13.7°C 66% 10.0 mph NNW16.1 kmh NNW 11.0 mph17.7 kmh 30.25 in1024.4 mb 0.00 in0.0 mm 0.00 in/hr0.0 mm/hr 0.00 in0.0 mm
01:05 AM 17.1°F-8.3°C 8.1°F-13.3°C 67% 6.0 mph NW9.7 kmh NW 11.0 mph17.7 kmh 30.25 in1024.4 mb 0.00 in0.0 mm 0.00 in/hr0.0 mm/hr 0.00 in0.0 mm
12:50 AM 17.2°F-8.2°C 7.8°F-13.4°C 66% 1.0 mph NNW1.6 kmh NNW 11.0 mph17.7 kmh 30.24 in1024.0 mb 0.00 in0.0 mm 0.00 in/hr0.0 mm/hr 0.00 in0.0 mm
12:35 AM 17.6°F-8.0°C 8.9°F-12.8°C 68% 1.0 mph NW1.6 kmh NW 10.0 mph16.1 kmh 30.24 in1024.0 mb 0.00 in0.0 mm 0.00 in/hr0.0 mm/hr 0.00 in0.0 mm
12:20 AM 17.9°F-7.8°C 9.1°F-12.7°C 68% 1.0 mph NW1.6 kmh NW 11.0 mph17.7 kmh 30.24 in1024.0 mb 0.00 in0.0 mm 0.00 in/hr0.0 mm/hr 0.00 in0.0 mm
12:05 AM 18.2°F-7.7°C 9.1°F-12.7°C 67% 2.0 mph NW3.2 kmh NW 11.0 mph17.7 kmh 30.24 in1024.0 mb 0.00 in0.0 mm 0.00 in/hr0.0 mm/hr 0.00 in0.0 mm